Terminal Aerodrome Forecast
Issued by NWS San Angelo, TX

Home | Current Version | Previous Version | Text Only | Print | Product List | Glossary On
Versions: 1 2 3 4 5 6 7 8 9 10 11 12 13 14 15 16
000
FTUS44 KSJT 281700 AAA
TAFSJT
TAF AMD
KSJT 281726Z 2817/0112 06008KT P6SM -FZDZ OVC006
     FM282100 14008KT P6SM OVC012
     FM010600 10010KT 4SM BR OVC008=

USA.gov is the U.S. government's official web portal to all federal, state and local government web resources and services.